Terminal Aerodrome Forecast
Issued by NWS

Current Version | Previous Version | Text Only | Print | Product List | Glossary On
Versions: 1 2 3 4 5 6 7 8 9 10 11 12 13 14 15 16 17 18 19 20 21 22 23 24 25 26 27 28 29 30 31
000
FTUS43 KDLH 272300 RRA
TAFHYR
TAF
KHYR 272340Z 2800/2824 VRB02KT P6SM SCT220
     FM280700 00000KT 2SM BR SCT005
      TEMPO 2808/2812 3/4SM BR SCT004 SCT070 BKN200
     FM281300 16004KT P6SM SCT050
     FM281900 16006KT P6SM VCSH BKN050 OVC140
      TEMPO 2821/2824 -TSRA BKN040CB=

USA.gov is the U.S. government's official web portal to all federal, state and local government web resources and services.